Forside
METAR-TAF:

METAR-TAF

Lufthavne :

Nebraska City Municipal Airport

Nebraska City, Nebraska, USA

Breddekreds: 40-36N, længdekreds: 095-51W, højde: 354 m

Aktuelle vejr

Denne rapport blev lavet for 12 minutter siden, kl. 17:55 UTC
Vind 15 kt fra sydøst med vindstød på up til 21 kt
Temperatur -9°C
Fugtighed 85%
Tryk 1016 hPa
Sigt: 16.1 km
Overskyet i en højde af 1000 ft

METAR: KAFK 211755Z AUTO 13015G21KT 10SM OVC010 M09/M11 A3001 RMK AO2 T10861115 11086 21113

Tid: 12:07 (18:07 UTC)


TAF: fraværende

Vejrobservationer og prognoser fra mere end 4000 lufthavne (METAR og TAF).

De gule og røde prikker repræsenterer de meteorologiske stationer.

Flyt musen over at se navnet på stationen.

Så klik over at se vejr observationer og prognoser.

At skifte det kort: Klik på de grønne knapper med et sort kors for at zoome ind; på den grønne knap med en bindestreg for at zoome ud; eller på de grønne pile for tilstødende kort.


METAR-TAF: